Time;durP1;ratioP1;P1;durP2;ratioP2;P2;SDS_P1;SDS_P2;PMS_P1;PMS_P2;Temp;Humidity;BMP_temperature;BMP_pressure;BME280_temperature;BME280_humidity;BME280_pressure;Samples;Min_cycle;Max_cycle;Signal;HPM_P1;HPM_P2
2023/01/14 00:00:33;;;;;;;1.90;0.80;;;5.60;83.30;;;;;;5067877;28;20662;-67
2023/01/14 00:03:01;;;;;;;1.70;0.80;;;5.50;83.20;;;;;;5054126;28;20194;-68
2023/01/14 00:05:30;;;;;;;1.83;0.80;;;5.40;83.60;;;;;;5051650;28;20189;-68
2023/01/14 00:07:58;;;;;;;4.40;0.85;;;5.40;84.20;;;;;;5067185;28;20181;-68
2023/01/14 00:10:30;;;;;;;5.28;1.35;;;5.40;84.50;;;;;;5061062;28;20197;-68
2023/01/14 00:12:58;;;;;;;4.03;1.10;;;5.40;84.10;;;;;;5064670;28;20200;-67
2023/01/14 00:15:34;;;;;;;2.30;0.90;;;5.40;84.00;;;;;;5071127;28;20304;-67
2023/01/14 00:18:01;;;;;;;4.63;1.40;;;5.40;84.20;;;;;;5052527;28;20194;-67
2023/01/14 00:20:30;;;;;;;3.30;0.88;;;5.40;84.70;;;;;;5051763;28;20194;-67
2023/01/14 00:23:03;;;;;;;5.00;1.60;;;5.40;84.90;;;;;;5069566;28;20727;-67
2023/01/14 00:25:30;;;;;;;7.15;1.20;;;5.40;84.90;;;;;;5071962;28;20277;-67
2023/01/14 00:27:57;;;;;;;9.60;1.10;;;5.40;84.70;;;;;;5053801;28;20661;-68
2023/01/14 00:30:27;;;;;;;3.03;0.95;;;5.40;84.70;;;;;;5051687;28;20675;-67
2023/01/14 00:32:54;;;;;;;2.33;0.82;;;5.40;84.50;;;;;;5068140;28;20244;-68
2023/01/14 00:35:22;;;;;;;5.38;0.95;;;5.40;84.20;;;;;;5071691;28;20214;-67
2023/01/14 00:37:51;;;;;;;2.55;0.80;;;5.40;84.60;;;;;;5055688;28;20186;-67
2023/01/14 00:40:18;;;;;;;3.40;0.80;;;5.30;85.10;;;;;;5051559;28;20285;-68
2023/01/14 00:42:47;;;;;;;2.15;0.85;;;5.20;85.90;;;;;;5065704;28;20251;-67
2023/01/14 00:45:14;;;;;;;1.77;0.70;;;5.30;86.00;;;;;;5071373;28;20590;-68
2023/01/14 00:47:42;;;;;;;2.20;0.82;;;5.20;86.00;;;;;;5057988;28;20194;-67
2023/01/14 00:50:11;;;;;;;2.63;1.00;;;5.20;86.10;;;;;;5051515;28;20197;-68
2023/01/14 00:52:38;;;;;;;2.08;0.80;;;5.30;86.00;;;;;;5063393;28;20201;-68
2023/01/14 00:55:08;;;;;;;4.00;0.90;;;5.30;85.70;;;;;;5061293;28;20613;-68
2023/01/14 00:57:35;;;;;;;3.58;1.00;;;5.30;85.50;;;;;;5051744;28;20542;-67
2023/01/14 01:00:07;;;;;;;5.75;1.10;;;5.40;85.40;;;;;;5057988;28;20652;-68
2023/01/14 01:02:35;;;;;;;3.80;0.85;;;5.40;85.20;;;;;;5051445;28;20209;-68
2023/01/14 01:05:05;;;;;;;2.65;0.82;;;5.40;84.70;;;;;;5059659;28;20185;-67
2023/01/14 01:07:32;;;;;;;3.60;0.70;;;5.40;84.20;;;;;;5071423;28;20656;-67
2023/01/14 01:10:00;;;;;;;3.45;0.70;;;5.40;83.90;;;;;;5063585;28;20190;-67
2023/01/14 01:12:29;;;;;;;3.85;0.90;;;5.40;83.40;;;;;;5051302;28;20681;-67
2023/01/14 01:15:04;;;;;;;5.70;1.00;;;5.40;83.70;;;;;;5051410;28;20613;-68
2023/01/14 01:17:31;;;;;;;2.13;0.90;;;5.40;83.80;;;;;;5051495;28;20192;-68
2023/01/14 01:19:59;;;;;;;4.78;1.30;;;5.30;84.20;;;;;;5057383;28;20198;-68
2023/01/14 01:22:26;;;;;;;2.13;0.98;;;5.40;84.90;;;;;;5071069;28;20192;-67
2023/01/14 01:24:54;;;;;;;2.15;0.85;;;5.40;84.90;;;;;;5068181;28;20213;-68
2023/01/14 01:27:21;;;;;;;4.35;1.00;;;5.40;85.40;;;;;;5055921;28;20209;-68
2023/01/14 01:29:51;;;;;;;2.80;0.75;;;5.50;85.20;;;;;;5058642;28;20189;-67
2023/01/14 01:32:18;;;;;;;5.63;1.05;;;5.50;85.30;;;;;;5075301;28;20190;-68
2023/01/14 01:34:46;;;;;;;4.22;0.70;;;5.60;84.80;;;;;;5071822;28;20229;-67
2023/01/14 01:37:17;;;;;;;3.35;1.05;;;5.60;84.50;;;;;;5055137;28;20194;-67
2023/01/14 01:39:46;;;;;;;2.83;0.90;;;5.60;84.80;;;;;;5056745;28;20256;-68
2023/01/14 01:42:14;;;;;;;2.50;0.70;;;5.70;84.80;;;;;;5074913;28;20221;-68
2023/01/14 01:45:19;;;;;;;4.43;1.23;;;5.70;84.70;;;;;;5072793;28;20304;-68
2023/01/14 01:47:47;;;;;;;4.07;1.10;;;5.70;84.90;;;;;;5054719;28;20194;-67
2023/01/14 01:50:15;;;;;;;3.67;1.40;;;5.70;84.40;;;;;;5059709;28;20193;-68
2023/01/14 01:52:48;;;;;;;4.05;1.40;;;5.70;84.00;;;;;;5074646;28;20193;-67
2023/01/14 01:55:19;;;;;;;2.40;1.08;;;5.70;83.80;;;;;;5061221;28;20222;-67
2023/01/14 01:57:51;;;;;;;3.80;1.10;;;5.80;84.00;;;;;;5054701;28;20260;-68
2023/01/14 02:00:21;;;;;;;2.88;1.08;;;5.70;83.90;;;;;;5067361;28;20189;-68
2023/01/14 02:02:51;;;;;;;2.85;0.90;;;5.70;84.30;;;;;;5075101;28;20190;-68
2023/01/14 02:05:19;;;;;;;4.90;1.50;;;5.70;84.40;;;;;;5061425;28;20194;-68
2023/01/14 02:07:46;;;;;;;2.97;1.02;;;5.70;84.70;;;;;;5056520;28;20197;-67
2023/01/14 02:10:21;;;;;;;4.10;1.30;;;5.80;84.80;;;;;;5074667;28;20213;-68
2023/01/14 02:13:09;;;;;;;5.30;1.10;;;5.90;84.50;;;;;;5056830;28;20225;-68
2023/01/14 02:15:52;;;;;;;3.70;1.25;;;5.90;84.60;;;;;;5054212;28;20218;-67
2023/01/14 02:18:31;;;;;;;3.80;1.02;;;5.90;85.40;;;;;;5054211;28;20198;-68
2023/01/14 02:21:09;;;;;;;3.95;1.10;;;5.90;84.40;;;;;;5054383;28;20198;-68
2023/01/14 02:24:21;;;;;;;5.85;1.40;;;5.90;84.50;;;;;;5054398;28;20225;-68
2023/01/14 02:27:13;;;;;;;4.25;0.80;;;5.90;84.20;;;;;;5074109;28;20194;-68
2023/01/14 02:30:10;;;;;;;2.22;0.90;;;5.90;84.70;;;;;;5071297;28;20656;-68
2023/01/14 02:32:49;;;;;;;3.55;1.08;;;6.00;84.90;;;;;;5054134;28;20276;-68
2023/01/14 02:35:33;;;;;;;4.95;1.30;;;6.10;85.00;;;;;;5053688;28;20668;-68
2023/01/14 02:38:15;;;;;;;2.65;1.10;;;6.10;84.90;;;;;;5054052;28;20186;-68
2023/01/14 02:40:46;;;;;;;4.25;1.40;;;6.00;85.00;;;;;;5057830;28;20582;-68
2023/01/14 02:46:11;;;;;;;3.92;1.25;;;6.10;85.40;;;;;;5066425;28;20188;-67
2023/01/14 02:48:40;;;;;;;3.17;1.17;;;6.10;85.60;;;;;;5053817;28;20280;-67
2023/01/14 02:51:10;;;;;;;3.63;1.40;;;6.10;85.90;;;;;;5060338;28;20192;-68
2023/01/14 02:53:37;;;;;;;3.42;1.42;;;6.20;86.00;;;;;;5073629;28;20669;-67
2023/01/14 02:56:10;;;;;;;4.00;0.88;;;6.20;85.80;;;;;;5067367;28;20656;-68
2023/01/14 02:58:51;;;;;;;3.35;1.40;;;6.30;85.60;;;;;;5056696;28;20185;-68
2023/01/14 03:01:36;;;;;;;3.08;1.00;;;6.30;85.60;;;;;;5073307;28;20192;-68
2023/01/14 03:04:35;;;;;;;4.18;1.30;;;6.30;85.30;;;;;;5059798;28;20182;-68
2023/01/14 03:07:12;;;;;;;2.67;0.90;;;6.30;84.90;;;;;;5052532;28;20226;-68
2023/01/14 03:09:49;;;;;;;2.95;0.88;;;6.30;84.80;;;;;;5064339;28;20183;-68
2023/01/14 03:12:23;;;;;;;5.85;1.08;;;6.20;84.90;;;;;;5073315;28;20198;-68
2023/01/14 03:15:00;;;;;;;3.45;1.27;;;6.30;84.50;;;;;;5060539;28;20262;-68
2023/01/14 03:17:34;;;;;;;3.65;1.00;;;6.20;84.70;;;;;;5053034;28;20668;-68
2023/01/14 03:20:06;;;;;;;2.40;0.88;;;6.20;84.80;;;;;;5066169;28;20193;-68
2023/01/14 03:22:35;;;;;;;4.00;1.25;;;6.10;84.90;;;;;;5072498;28;20190;-68
2023/01/14 03:25:04;;;;;;;2.63;1.00;;;6.10;85.10;;;;;;5059499;28;20222;-68
2023/01/14 03:27:36;;;;;;;3.60;1.00;;;6.10;85.20;;;;;;5052692;28;20202;-68
2023/01/14 03:30:09;;;;;;;5.18;1.17;;;6.20;84.90;;;;;;5053888;28;20191;-68
2023/01/14 03:32:43;;;;;;;2.90;2.47;;;6.20;84.80;;;;;;5053044;28;20206;-67
2023/01/14 03:35:16;;;;;;;3.75;0.88;;;6.20;84.90;;;;;;5064919;28;20243;-67
2023/01/14 03:37:47;;;;;;;2.72;0.90;;;6.10;84.90;;;;;;5072920;28;20513;-68
2023/01/14 03:40:17;;;;;;;4.15;1.77;;;6.10;85.10;;;;;;5059835;28;20190;-67
2023/01/14 03:42:50;;;;;;;9.20;2.00;;;6.10;85.30;;;;;;5052856;28;20205;-68
2023/01/14 03:45:22;;;;;;;3.38;1.30;;;6.10;85.20;;;;;;5064355;28;20221;-68
2023/01/14 03:47:52;;;;;;;4.93;1.50;;;6.00;85.20;;;;;;5063747;28;20276;-68
2023/01/14 03:50:25;;;;;;;6.25;2.25;;;6.00;85.10;;;;;;5060090;28;20192;-69
2023/01/14 03:53:11;;;;;;;2.83;0.95;;;6.00;85.10;;;;;;5052557;28;20281;-68
2023/01/14 03:55:47;;;;;;;4.97;1.10;;;6.00;84.60;;;;;;5066039;28;20314;-67
2023/01/14 03:58:25;;;;;;;4.13;0.95;;;6.00;84.30;;;;;;5062434;28;20557;-67
2023/01/14 04:00:58;;;;;;;4.47;1.40;;;6.00;84.20;;;;;;5052383;28;20190;-68
2023/01/14 04:03:28;;;;;;;3.13;0.88;;;6.00;84.10;;;;;;5063242;28;20186;-67
2023/01/14 04:05:59;;;;;;;2.63;0.95;;;6.00;83.50;;;;;;5072255;28;20190;-68
2023/01/14 04:08:28;;;;;;;4.57;1.45;;;5.90;82.30;;;;;;5061552;28;20199;-68
2023/01/14 04:11:00;;;;;;;4.78;2.03;;;5.90;82.10;;;;;;5052335;28;20186;-67
2023/01/14 04:16:13;;;;;;;3.85;1.00;;;5.90;82.20;;;;;;5072294;28;20690;-67
2023/01/14 04:18:42;;;;;;;7.85;1.73;;;5.90;81.70;;;;;;5060350;28;20675;-67
2023/01/14 04:21:09;;;;;;;4.55;0.75;;;5.80;81.60;;;;;;5052151;28;20281;-68
2023/01/14 04:23:39;;;;;;;2.80;1.10;;;5.80;82.10;;;;;;5061973;28;20235;-67
2023/01/14 04:26:10;;;;;;;2.70;0.93;;;5.80;82.20;;;;;;5063082;28;20245;-68
2023/01/14 04:28:42;;;;;;;4.05;1.08;;;5.90;81.80;;;;;;5052038;28;20190;-67
2023/01/14 04:31:09;;;;;;;3.65;1.15;;;5.90;81.30;;;;;;5060428;28;20217;-67
2023/01/14 04:33:41;;;;;;;3.17;1.73;;;5.90;81.20;;;;;;5072043;28;20193;-67
2023/01/14 04:36:13;;;;;;;4.75;0.90;;;5.90;80.40;;;;;;5063600;28;20264;-67
2023/01/14 04:38:42;;;;;;;3.30;1.10;;;5.90;80.10;;;;;;5052206;28;20198;-67
2023/01/14 04:42:25;;;;;;;1.90;0.82;;;5.80;79.90;;;;;;5059390;28;20185;-67
2023/01/14 04:43:59;;;;;;;7.22;1.38;;;5.80;79.30;;;;;;5071113;28;20217;-67
2023/01/14 04:46:27;;;;;;;4.85;1.10;;;5.80;79.30;;;;;;5062295;28;20334;-67
2023/01/14 04:48:56;;;;;;;4.90;1.17;;;5.80;79.20;;;;;;5051834;28;20190;-67
2023/01/14 04:51:23;;;;;;;3.10;1.00;;;5.80;79.00;;;;;;5059822;28;20190;-67
2023/01/14 04:53:50;;;;;;;10.45;1.38;;;5.80;78.90;;;;;;5056931;28;20194;-67
2023/01/14 04:56:18;;;;;;;2.78;1.20;;;5.80;78.80;;;;;;5051693;28;20226;-67
2023/01/14 04:58:45;;;;;;;5.32;1.70;;;5.70;78.70;;;;;;5053383;28;20285;-68
2023/01/14 05:01:14;;;;;;;3.25;1.10;;;5.70;78.60;;;;;;5066762;28;20186;-67
2023/01/14 05:03:42;;;;;;;5.82;2.00;;;5.80;78.60;;;;;;5055603;28;20286;-67
2023/01/14 05:06:10;;;;;;;5.95;1.10;;;5.80;78.40;;;;;;5058489;28;20189;-67
2023/01/14 05:08:38;;;;;;;4.32;1.55;;;5.80;78.40;;;;;;5075952;28;20240;-67
2023/01/14 05:11:06;;;;;;;6.32;1.00;;;5.80;78.40;;;;;;5073356;28;20532;-67
2023/01/14 05:13:33;;;;;;;6.45;1.60;;;5.80;78.50;;;;;;5055392;28;20190;-68
2023/01/14 05:16:04;;;;;;;4.32;1.42;;;5.80;78.50;;;;;;5055805;28;20226;-67
2023/01/14 05:18:32;;;;;;;5.05;1.42;;;5.80;78.60;;;;;;5075665;28;20187;-67
2023/01/14 05:21:01;;;;;;;4.55;1.40;;;5.80;78.70;;;;;;5074931;28;20653;-68
2023/01/14 05:23:29;;;;;;;8.18;2.10;;;5.80;78.50;;;;;;5055432;28;20602;-67
2023/01/14 05:25:57;;;;;;;3.83;1.50;;;5.80;78.10;;;;;;5055278;28;20194;-67
2023/01/14 05:28:24;;;;;;;5.53;1.50;;;5.80;79.00;;;;;;5055447;28;20596;-67
2023/01/14 05:30:51;;;;;;;6.85;1.35;;;5.80;78.20;;;;;;5055028;28;20293;-67
2023/01/14 05:33:19;;;;;;;3.72;1.25;;;5.80;78.30;;;;;;5073002;28;20269;-67
2023/01/14 05:35:54;;;;;;;4.55;1.33;;;5.80;78.50;;;;;;5071556;28;20215;-68
2023/01/14 05:38:26;;;;;;;6.60;1.63;;;5.90;78.40;;;;;;5055155;28;20190;-68
2023/01/14 05:40:56;;;;;;;5.93;2.35;;;5.90;78.30;;;;;;5058346;28;20548;-67
2023/01/14 05:46:14;;;;;;;6.10;1.75;;;5.90;78.10;;;;;;5063918;28;20193;-67
2023/01/14 05:48:46;;;;;;;9.07;1.88;;;5.80;78.30;;;;;;5055087;28;20537;-67
2023/01/14 05:51:19;;;;;;;4.13;1.90;;;5.80;78.50;;;;;;5059247;28;20229;-68
2023/01/14 05:53:46;;;;;;;4.90;1.65;;;5.80;78.50;;;;;;5074986;28;20189;-68
2023/01/14 05:56:18;;;;;;;7.50;1.80;;;5.80;78.90;;;;;;5069750;28;20747;-67
2023/01/14 05:58:49;;;;;;;2.70;1.25;;;5.90;78.30;;;;;;5054862;28;20190;-68
2023/01/14 06:09:44;;;;;;;7.80;1.90;;;5.70;77.80;;;;;;5065289;28;20186;-67
2023/01/14 06:12:33;;;;;;;3.03;1.30;;;5.60;78.00;;;;;;5053697;28;20198;-68
2023/01/14 06:15:02;;;;;;;10.63;3.03;;;5.70;77.80;;;;;;5065512;28;20198;-67
2023/01/14 06:17:44;;;;;;;7.50;2.10;;;5.60;77.60;;;;;;5074497;28;20221;-67
2023/01/14 06:20:12;;;;;;;8.32;1.92;;;5.50;77.60;;;;;;5061763;28;20700;-67
2023/01/14 06:22:43;;;;;;;8.07;3.97;;;5.50;77.70;;;;;;5054581;28;20220;-67
2023/01/14 06:25:12;;;;;;;4.88;2.08;;;5.40;77.80;;;;;;5065546;28;20664;-67
2023/01/14 06:27:41;;;;;;;5.72;2.53;;;5.30;78.20;;;;;;5074429;28;20636;-67
2023/01/14 06:30:11;;;;;;;6.18;1.80;;;5.20;78.30;;;;;;5062812;28;20190;-67
2023/01/14 06:32:42;;;;;;;4.03;1.88;;;5.20;78.50;;;;;;5062680;28;20536;-67
2023/01/14 06:35:15;;;;;;;5.63;2.00;;;5.20;78.60;;;;;;5074215;28;20189;-67
2023/01/14 06:37:47;;;;;;;14.27;8.32;;;5.10;78.60;;;;;;5064950;28;20217;-67
2023/01/14 06:40:23;;;;;;;14.32;3.58;;;5.10;79.00;;;;;;5054220;28;20201;-67
2023/01/14 06:42:56;;;;;;;11.48;6.75;;;5.00;79.20;;;;;;5062998;28;20200;-68
2023/01/14 06:45:24;;;;;;;8.65;5.78;;;4.90;79.50;;;;;;5073606;28;20218;-67
2023/01/14 06:47:52;;;;;;;8.93;5.32;;;4.90;79.60;;;;;;5064726;28;20591;-67
2023/01/14 06:50:24;;;;;;;8.68;3.13;;;4.90;79.40;;;;;;5053881;28;20186;-68
2023/01/14 06:52:52;;;;;;;7.65;1.70;;;4.80;79.50;;;;;;5061835;28;20186;-68
2023/01/14 06:55:21;;;;;;;3.45;2.00;;;4.80;79.40;;;;;;5073670;28;20208;-68
2023/01/14 06:57:48;;;;;;;4.47;2.20;;;4.80;79.40;;;;;;5071935;28;20287;-67
2023/01/14 07:00:18;;;;;;;7.28;2.53;;;4.70;79.60;;;;;;5073916;28;20221;-67
2023/01/14 07:02:46;;;;;;;7.30;1.92;;;4.70;80.10;;;;;;5067472;28;20661;-67
2023/01/14 07:05:16;;;;;;;5.10;2.72;;;4.60;80.00;;;;;;5053770;28;20195;-67
2023/01/14 07:07:46;;;;;;;6.25;2.05;;;4.60;80.70;;;;;;5058376;28;20182;-67
2023/01/14 07:10:13;;;;;;;4.50;1.90;;;4.60;80.80;;;;;;5073730;28;20193;-66
2023/01/14 07:12:48;;;;;;;4.88;2.45;;;4.60;81.30;;;;;;5069008;28;20195;-67
2023/01/14 07:15:22;;;;;;;2.67;1.35;;;4.50;81.60;;;;;;5053559;28;20190;-66
2023/01/14 07:17:50;;;;;;;3.25;1.20;;;4.50;81.50;;;;;;5057625;28;20298;-66
2023/01/14 07:20:18;;;;;;;2.70;1.00;;;4.50;81.80;;;;;;5073746;28;20197;-68
2023/01/14 07:22:46;;;;;;;3.35;1.50;;;4.40;82.10;;;;;;5069264;28;20197;-67
2023/01/14 07:25:14;;;;;;;3.08;1.60;;;4.30;82.60;;;;;;5053296;28;20187;-67
2023/01/14 07:27:43;;;;;;;4.50;2.50;;;4.30;83.20;;;;;;5072906;28;20617;-67
2023/01/14 07:30:15;;;;;;;2.60;1.20;;;4.50;84.60;;;;;;5073148;28;20231;-67
2023/01/14 07:32:44;;;;;;;2.90;1.75;;;4.70;84.20;;;;;;5072595;28;20566;-68
2023/01/14 07:35:12;;;;;;;4.28;2.25;;;5.00;84.70;;;;;;5059191;28;20190;-67
2023/01/14 07:37:42;;;;;;;4.40;2.20;;;5.30;84.30;;;;;;5053133;28;20578;-67
2023/01/14 07:40:11;;;;;;;3.55;2.20;;;5.70;83.30;;;;;;5065219;28;20648;-67
2023/01/14 07:42:38;;;;;;;5.53;2.25;;;6.10;80.80;;;;;;5073015;28;20197;-67
2023/01/14 07:45:07;;;;;;;2.85;1.88;;;6.40;79.90;;;;;;5060733;28;20225;-67
2023/01/14 07:47:35;;;;;;;5.45;3.45;;;6.60;78.40;;;;;;5052976;28;20191;-67
2023/01/14 07:50:07;;;;;;;4.53;2.03;;;7.00;77.80;;;;;;5062755;28;20269;-67
2023/01/14 07:52:34;;;;;;;4.57;2.15;;;7.50;75.00;;;;;;5070406;28;20534;-66
2023/01/14 07:55:02;;;;;;;2.85;1.77;;;7.80;74.80;;;;;;5052999;28;20267;-67
2023/01/14 07:57:33;;;;;;;4.88;2.13;;;7.90;71.70;;;;;;5053016;28;20567;-66
2023/01/14 08:00:02;;;;;;;3.33;1.60;;;8.10;71.90;;;;;;5072629;28;20196;-68
2023/01/14 08:02:29;;;;;;;2.53;1.30;;;8.20;68.80;;;;;;5072094;28;20198;-69
2023/01/14 08:04:57;;;;;;;3.83;1.45;;;8.40;69.60;;;;;;5052550;28;20292;-68
2023/01/14 08:07:26;;;;;;;2.63;1.00;;;8.60;67.10;;;;;;5052459;28;20194;-67
2023/01/14 08:09:53;;;;;;;1.92;1.00;;;8.80;65.90;;;;;;5052714;28;20225;-67
2023/01/14 08:12:23;;;;;;;3.50;1.27;;;8.90;65.20;;;;;;5052511;28;20288;-68
2023/01/14 08:14:51;;;;;;;3.42;1.42;;;9.00;64.50;;;;;;5051429;28;20209;-67
2023/01/14 08:17:21;;;;;;;2.63;1.30;;;9.10;63.40;;;;;;5069248;28;20218;-68
2023/01/14 08:19:48;;;;;;;2.38;1.20;;;9.10;63.20;;;;;;5069390;28;20193;-68
2023/01/14 08:22:15;;;;;;;3.35;1.15;;;9.30;62.60;;;;;;5069523;28;20234;-68
2023/01/14 08:24:44;;;;;;;3.20;1.25;;;9.20;62.90;;;;;;5063129;28;20632;-68
2023/01/14 08:27:12;;;;;;;2.40;1.10;;;9.00;63.20;;;;;;5051752;28;20658;-68
2023/01/14 08:29:54;;;;;;;3.75;1.50;;;9.00;63.30;;;;;;5053351;28;20543;-68
2023/01/14 08:32:22;;;;;;;5.72;1.90;;;9.00;63.30;;;;;;5065561;28;20193;-68
2023/01/14 08:34:51;;;;;;;5.80;2.30;;;8.90;61.80;;;;;;5065753;28;20937;-68
2023/01/14 08:37:18;;;;;;;3.75;1.88;;;8.80;64.50;;;;;;5069418;28;20227;-67
2023/01/14 08:39:47;;;;;;;2.65;1.55;;;8.90;62.20;;;;;;5058939;28;20201;-67
2023/01/14 08:42:15;;;;;;;4.05;1.70;;;9.10;63.90;;;;;;5052959;28;20255;-68
2023/01/14 08:44:42;;;;;;;3.17;1.30;;;9.50;62.70;;;;;;5060139;28;20215;-67
2023/01/14 08:47:10;;;;;;;4.00;1.20;;;10.10;60.00;;;;;;5069001;28;20220;-68
2023/01/14 08:49:45;;;;;;;3.15;1.52;;;10.40;58.00;;;;;;5068158;28;20190;-68
2023/01/14 08:52:13;;;;;;;4.57;1.80;;;10.50;57.80;;;;;;5069604;28;20242;-68
2023/01/14 08:54:40;;;;;;;4.15;1.38;;;10.80;57.70;;;;;;5068952;28;20251;-69
2023/01/14 08:57:21;;;;;;;3.47;1.00;;;11.00;55.80;;;;;;5051691;28;20218;-68
2023/01/14 08:59:49;;;;;;;2.42;1.90;;;11.30;55.60;;;;;;5051760;28;20225;-68
2023/01/14 09:02:17;;;;;;;2.40;1.40;;;11.50;54.70;;;;;;5069466;28;20198;-68
2023/01/14 09:04:44;;;;;;;2.00;1.10;;;12.00;54.70;;;;;;5069453;28;20277;-67
2023/01/14 09:18:10;;;;;;;5.13;1.13;;;13.30;48.40;;;;;;5059159;28;20540;-68
2023/01/14 09:20:42;;;;;;;2.00;0.90;;;13.40;47.40;;;;;;5056210;28;20528;-68
2023/01/14 09:23:10;;;;;;;2.20;1.00;;;13.60;48.30;;;;;;5053708;28;20436;-68
2023/01/14 09:25:37;;;;;;;4.00;1.10;;;13.90;47.70;;;;;;5066892;28;20937;-68
2023/01/14 09:28:06;;;;;;;3.43;1.40;;;14.10;45.50;;;;;;5059192;28;20994;-68
2023/01/14 09:30:33;;;;;;;2.17;1.07;;;14.00;45.90;;;;;;5052707;28;20914;-68
2023/01/14 09:33:01;;;;;;;2.43;1.10;;;14.30;46.90;;;;;;5055005;28;20467;-69
2023/01/14 09:35:28;;;;;;;3.27;1.63;;;14.80;45.90;;;;;;5055768;28;20441;-68
2023/01/14 09:37:55;;;;;;;2.47;1.10;;;15.10;46.60;;;;;;5067391;28;20572;-68
2023/01/14 09:40:27;;;;;;;2.70;1.27;;;15.20;43.50;;;;;;5051195;28;20475;-68
2023/01/14 09:42:57;;;;;;;3.00;1.00;;;15.40;44.20;;;;;;5050738;28;20532;-68
2023/01/14 09:45:29;;;;;;;2.90;0.87;;;15.40;43.70;;;;;;5062420;28;20467;-68
2023/01/14 09:47:59;;;;;;;2.20;1.07;;;15.30;42.50;;;;;;5054166;28;20519;-67
2023/01/14 09:50:34;;;;;;;2.37;1.03;;;15.40;43.90;;;;;;5057579;28;20479;-67
2023/01/14 09:53:23;;;;;;;2.30;0.90;;;15.60;42.80;;;;;;5059315;28;20491;-66
2023/01/14 09:55:55;;;;;;;2.33;1.13;;;15.70;42.70;;;;;;5053728;28;20441;-67
2023/01/14 09:58:27;;;;;;;3.37;1.53;;;15.60;42.30;;;;;;5053543;28;20516;-68
2023/01/14 10:01:06;;;;;;;2.23;1.10;;;15.70;42.10;;;;;;5056429;28;20524;-68
2023/01/14 10:03:43;;;;;;;2.70;1.00;;;15.80;43.00;;;;;;5057352;28;20517;-67
2023/01/14 10:06:13;;;;;;;3.17;1.20;;;15.50;41.20;;;;;;5055070;28;20914;-69
2023/01/14 10:08:44;;;;;;;2.10;1.20;;;15.60;43.10;;;;;;5067581;28;20503;-68
2023/01/14 10:11:14;;;;;;;4.27;1.90;;;15.70;41.00;;;;;;5067487;28;20437;-68
2023/01/14 10:13:46;;;;;;;4.83;1.30;;;15.40;40.90;;;;;;5070767;28;21431;-68
2023/01/14 10:16:19;;;;;;;4.00;1.80;;;15.10;40.60;;;;;;5057154;28;20464;-67
2023/01/14 10:18:51;;;;;;;2.90;1.60;;;14.50;41.50;;;;;;5053731;28;20480;-68
2023/01/14 10:21:27;;;;;;;3.37;1.43;;;14.30;42.50;;;;;;5067179;28;20467;-68
2023/01/14 10:23:54;;;;;;;3.20;0.87;;;14.30;42.40;;;;;;5069433;28;20474;-67
2023/01/14 10:26:22;;;;;;;2.17;1.00;;;14.20;42.50;;;;;;5070314;28;20440;-68
2023/01/14 10:28:54;;;;;;;2.50;1.03;;;14.10;42.30;;;;;;5057034;28;20437;-68
2023/01/14 10:31:33;;;;;;;2.60;1.10;;;14.30;43.70;;;;;;5055046;28;20445;-68
2023/01/14 10:34:00;;;;;;;3.17;0.90;;;14.90;43.50;;;;;;5053046;28;20543;-67
2023/01/14 10:36:30;;;;;;;1.90;0.70;;;15.10;40.10;;;;;;5055196;28;20473;-68
2023/01/14 10:38:58;;;;;;;2.27;1.07;;;15.20;40.80;;;;;;5069565;28;20483;-68
2023/01/14 10:44:06;;;;;;;4.50;1.30;;;14.90;38.70;;;;;;5055033;28;20463;-66
2023/01/14 10:46:35;;;;;;;3.30;1.30;;;14.90;38.80;;;;;;5065819;28;20810;-68
2023/01/14 10:49:06;;;;;;;2.90;1.40;;;14.70;39.20;;;;;;5061887;28;20519;-68
2023/01/14 10:51:38;;;;;;;2.67;1.27;;;14.70;39.70;;;;;;5070239;28;20547;-68
2023/01/14 10:54:11;;;;;;;2.30;1.30;;;14.60;39.90;;;;;;5061633;28;20870;-68
2023/01/14 10:56:39;;;;;;;2.03;0.97;;;14.50;39.90;;;;;;5067483;28;20474;-68
2023/01/14 10:59:39;;;;;;;2.13;0.93;;;13.90;39.10;;;;;;5058469;28;20477;-67
2023/01/14 11:02:21;;;;;;;3.30;1.10;;;13.60;39.80;;;;;;5061815;28;20439;-67
2023/01/14 11:04:49;;;;;;;1.97;0.70;;;13.30;41.00;;;;;;5061533;28;20447;-67
2023/01/14 11:07:26;;;;;;;3.03;1.10;;;12.90;41.00;;;;;;5069539;28;20444;-68
2023/01/14 11:09:54;;;;;;;2.10;1.03;;;12.70;42.00;;;;;;5056729;28;20436;-67
2023/01/14 11:12:31;;;;;;;2.70;1.23;;;12.40;41.70;;;;;;5054293;28;20451;-68
2023/01/14 11:14:58;;;;;;;3.60;1.57;;;12.30;42.00;;;;;;5052798;28;20891;-68
2023/01/14 11:17:29;;;;;;;4.43;2.70;;;12.10;42.90;;;;;;5060370;28;20541;-68
2023/01/14 11:20:20;;;;;;;12.50;8.73;;;12.00;43.30;;;;;;5052970;28;20520;-68
2023/01/14 11:22:56;;;;;;;5.35;3.92;;;11.90;44.10;;;;;;5052835;28;20437;-67
2023/01/14 11:25:24;;;;;;;6.32;4.78;;;11.80;44.10;;;;;;5056586;28;20231;-67
2023/01/14 11:27:52;;;;;;;3.80;2.20;;;11.60;44.70;;;;;;5067909;28;20424;-67
2023/01/14 11:30:22;;;;;;;2.30;1.33;;;11.60;45.80;;;;;;5057254;28;20803;-68
2023/01/14 11:32:52;;;;;;;2.30;1.10;;;11.50;45.40;;;;;;5070085;28;20608;-67
2023/01/14 11:35:24;;;;;;;4.10;2.08;;;11.40;45.00;;;;;;5066490;28;20458;-67
2023/01/14 11:37:53;;;;;;;3.88;2.00;;;11.30;45.30;;;;;;5070578;28;20591;-68
2023/01/14 11:40:24;;;;;;;4.18;2.70;;;11.10;44.50;;;;;;5064722;28;20209;-68
2023/01/14 11:42:52;;;;;;;4.60;2.45;;;11.10;45.40;;;;;;5052432;28;20257;-66
2023/01/14 11:45:21;;;;;;;5.70;3.63;;;11.20;45.90;;;;;;5058126;28;20602;-68
2023/01/14 11:47:51;;;;;;;4.20;2.50;;;11.40;45.20;;;;;;5069403;28;20193;-67
2023/01/14 11:50:21;;;;;;;3.53;2.53;;;11.50;45.20;;;;;;5067915;28;20217;-67
2023/01/14 11:53:16;;;;;;;3.70;2.50;;;11.60;45.10;;;;;;5070302;28;20185;-67
2023/01/14 11:55:47;;;;;;;4.32;2.30;;;11.70;45.40;;;;;;5053182;28;20471;-67
2023/01/14 11:58:19;;;;;;;2.50;1.40;;;11.80;45.10;;;;;;5052258;28;20218;-67
2023/01/14 12:00:49;;;;;;;4.40;2.40;;;11.70;43.20;;;;;;5055926;28;20559;-67
2023/01/14 12:03:30;;;;;;;4.40;2.58;;;11.80;44.10;;;;;;5052068;28;20281;-67
2023/01/14 12:05:58;;;;;;;6.03;3.30;;;11.80;43.80;;;;;;5067573;28;20269;-68
2023/01/14 12:08:29;;;;;;;7.00;3.50;;;11.80;44.40;;;;;;5066226;28;20265;-67
2023/01/14 12:11:00;;;;;;;4.90;2.87;;;11.70;43.60;;;;;;5051786;28;20848;-67
2023/01/14 12:19:21;;;;;;;3.37;1.93;;;12.10;43.90;;;;;;5058427;28;20271;-67
2023/01/14 12:21:54;;;;;;;3.83;1.93;;;12.80;44.70;;;;;;5051396;28;20474;-68
2023/01/14 12:24:27;;;;;;;4.03;2.60;;;13.80;44.20;;;;;;5053995;28;21695;-68
2023/01/14 12:26:57;;;;;;;4.20;2.23;;;14.50;42.20;;;;;;5065319;28;20822;-68
2023/01/14 12:29:30;;;;;;;4.83;2.53;;;15.00;40.10;;;;;;5054757;28;20515;-68
2023/01/14 12:32:02;;;;;;;7.90;5.27;;;15.30;39.80;;;;;;5056107;28;20439;-68
2023/01/14 12:34:39;;;;;;;3.27;1.70;;;15.70;40.30;;;;;;5070069;28;20439;-67
2023/01/14 12:37:13;;;;;;;7.90;2.13;;;15.90;38.60;;;;;;5071980;28;20847;-67
2023/01/14 12:45:44;;;;;;;4.03;2.07;;;16.00;37.30;;;;;;5072098;28;20506;-68
2023/01/14 12:48:13;;;;;;;4.30;2.10;;;16.00;36.20;;;;;;5072553;28;20789;-67
2023/01/14 12:50:48;;;;;;;3.80;2.07;;;16.00;36.70;;;;;;5072583;28;20436;-67
2023/01/14 12:53:19;;;;;;;2.40;1.30;;;16.00;36.10;;;;;;5072666;28;20877;-67
2023/01/14 12:55:48;;;;;;;2.50;1.20;;;15.80;34.40;;;;;;5072185;28;20827;-68
2023/01/14 12:58:19;;;;;;;2.00;0.97;;;15.80;35.80;;;;;;5072255;28;20573;-67
2023/01/14 13:00:51;;;;;;;2.30;1.20;;;15.90;34.70;;;;;;5072670;28;20463;-68
2023/01/14 13:03:22;;;;;;;2.60;1.17;;;15.90;34.60;;;;;;5072139;28;20838;-67
2023/01/14 13:05:53;;;;;;;2.03;0.93;;;15.80;33.80;;;;;;5072442;28;20840;-67
2023/01/14 13:08:26;;;;;;;4.77;1.10;;;15.30;34.10;;;;;;5072659;28;20533;-67
2023/01/14 13:11:03;;;;;;;2.83;1.10;;;15.00;35.40;;;;;;5072537;28;20476;-68
2023/01/14 13:13:33;;;;;;;3.10;2.00;;;15.00;36.20;;;;;;5072390;28;20485;-67
2023/01/14 13:16:03;;;;;;;2.43;1.30;;;14.90;35.40;;;;;;5072168;28;20440;-67
2023/01/14 13:18:45;;;;;;;4.23;1.60;;;15.00;36.90;;;;;;5072217;28;20562;-67
2023/01/14 13:21:57;;;;;;;2.40;1.13;;;15.10;37.10;;;;;;5075361;28;20479;-68
2023/01/14 13:24:32;;;;;;;3.03;1.47;;;15.20;35.50;;;;;;5060304;28;20473;-67
2023/01/14 13:27:01;;;;;;;5.80;1.30;;;15.00;35.00;;;;;;5075785;28;20467;-67
2023/01/14 13:29:31;;;;;;;3.17;1.43;;;14.90;35.50;;;;;;5075787;28;20523;-68
2023/01/14 13:31:58;;;;;;;5.23;1.60;;;14.90;35.70;;;;;;5075623;28;20527;-67
2023/01/14 13:35:02;;;;;;;3.50;1.30;;;14.90;36.70;;;;;;5075490;28;20434;-67
2023/01/14 13:37:44;;;;;;;3.83;1.57;;;14.80;35.10;;;;;;5075698;28;20985;-67
2023/01/14 13:40:20;;;;;;;6.60;1.73;;;14.70;35.30;;;;;;5075554;28;20539;-67
2023/01/14 13:42:57;;;;;;;2.30;1.20;;;14.60;36.50;;;;;;5075295;28;20949;-67
2023/01/14 13:45:28;;;;;;;3.27;1.60;;;14.40;35.90;;;;;;5075378;28;20566;-67
2023/01/14 13:47:57;;;;;;;10.17;6.13;;;14.30;36.20;;;;;;5075694;28;20436;-67
2023/01/14 13:50:26;;;;;;;6.13;3.60;;;14.20;36.80;;;;;;5075462;28;20499;-67
2023/01/14 13:53:02;;;;;;;3.60;2.30;;;14.10;36.60;;;;;;5075696;28;20849;-67
2023/01/14 13:55:32;;;;;;;10.33;9.53;;;14.00;37.20;;;;;;5075578;28;20444;-67
2023/01/14 13:58:05;;;;;;;3.40;1.30;;;13.90;37.60;;;;;;5075262;28;20444;-67